Time;durP1;ratioP1;P1;durP2;ratioP2;P2;SDS_P1;SDS_P2;PMS_P1;PMS_P2;Temp;Humidity;BMP_temperature;BMP_pressure;BME280_temperature;BME280_humidity;BME280_pressure;Samples;Min_cycle;Max_cycle;Signal;HPM_P1;HPM_P2
2021/10/09 18:40:42;;;;;;;2.78;2.05;;;;;;;;;;5685423;23;20793;-72
2021/10/09 18:43:26;;;;;;;3.72;2.30;;;;;;;;;;4944862;29;20046;-71
2021/10/09 18:46:11;;;;;;;3.25;2.40;;;;;;;;;;4978849;28;20070;-71
2021/10/09 18:48:56;;;;;;;4.05;2.80;;;;;;;;;;4951388;28;20097;-71
2021/10/09 18:51:40;;;;;;;8.25;3.28;;;;;;;;;;4949784;29;20086;-71
2021/10/09 18:54:25;;;;;;;4.70;3.08;;;;;;;;;;4945362;29;20054;-71
2021/10/09 18:57:09;;;;;;;6.05;3.17;;;;;;;;;;4949810;29;20094;-71
2021/10/09 18:59:54;;;;;;;3.60;3.00;;;;;;;;;;4950349;29;20046;-71
2021/10/09 19:02:39;;;;;;;5.38;3.10;;;;;;;;;;4948770;28;20078;-71
2021/10/09 19:05:24;;;;;;;5.90;3.47;;;;;;;;;;4948300;29;20078;-72
2021/10/09 19:08:09;;;;;;;4.95;3.20;;;;;;;;;;4950454;29;20045;-71
2021/10/09 19:10:53;;;;;;;5.85;3.80;;;;;;;;;;4952850;29;20038;-72
2021/10/09 19:13:38;;;;;;;7.57;4.38;;;;;;;;;;4952942;29;20418;-72
2021/10/09 19:16:23;;;;;;;6.78;4.72;;;;;;;;;;4968689;28;20552;-71
2021/10/09 19:19:07;;;;;;;5.63;4.18;;;;;;;;;;4953133;29;20042;-71
2021/10/09 19:21:54;;;;;;;5.90;4.22;;;;;;;;;;4951813;29;20417;-71
2021/10/09 19:24:39;;;;;;;7.05;3.83;;;;;;;;;;4949738;29;20584;-71
2021/10/09 19:27:23;;;;;;;6.65;4.13;;;;;;;;;;4950945;29;20090;-71
2021/10/09 19:30:08;;;;;;;5.90;3.85;;;;;;;;;;4953676;29;20046;-71
2021/10/09 19:32:54;;;;;;;5.95;4.30;;;;;;;;;;4952301;29;20415;-71
2021/10/09 19:38:23;;;;;;;7.05;4.88;;;;;;;;;;4952836;29;20070;-71
2021/10/09 19:41:08;;;;;;;6.10;4.97;;;;;;;;;;4953978;29;20136;-71
2021/10/09 19:43:54;;;;;;;7.40;4.88;;;;;;;;;;4953201;29;20047;-71
2021/10/09 19:46:40;;;;;;;8.63;5.40;;;;;;;;;;4952554;29;20030;-72
2021/10/09 19:49:26;;;;;;;7.07;5.20;;;;;;;;;;4953253;29;20097;-72
2021/10/09 19:52:33;;;;;;;8.13;5.43;;;;;;;;;;4977123;28;20113;-71
2021/10/09 19:55:17;;;;;;;7.07;5.00;;;;;;;;;;4944269;29;20077;-71
2021/10/09 19:58:02;;;;;;;8.23;5.30;;;;;;;;;;4950071;29;20043;-71
2021/10/09 20:00:46;;;;;;;7.30;5.10;;;;;;;;;;4948937;29;20526;-71
2021/10/09 20:03:32;;;;;;;5.80;4.97;;;;;;;;;;4951002;29;20486;-72
2021/10/09 20:06:19;;;;;;;8.82;5.32;;;;;;;;;;4951547;29;20126;-71
2021/10/09 20:09:10;;;;;;;6.20;4.97;;;;;;;;;;4953469;29;20056;-72
2021/10/09 20:12:03;;;;;;;8.70;5.35;;;;;;;;;;4951781;29;20082;-71
2021/10/09 20:14:48;;;;;;;8.23;5.60;;;;;;;;;;4951652;29;20069;-71
2021/10/09 20:17:32;;;;;;;7.32;5.35;;;;;;;;;;4945560;28;20038;-72
2021/10/09 20:20:29;;;;;;;6.78;5.07;;;;;;;;;;4957845;28;20046;-71
2021/10/09 20:23:18;;;;;;;7.85;5.85;;;;;;;;;;4950039;29;20570;-71
2021/10/09 20:26:03;;;;;;;7.93;5.60;;;;;;;;;;4943892;29;20499;-71
2021/10/09 20:28:48;;;;;;;8.23;5.25;;;;;;;;;;4964498;28;20110;-72
2021/10/09 20:31:33;;;;;;;6.75;5.43;;;;;;;;;;4952205;29;20654;-71
2021/10/09 20:34:17;;;;;;;7.57;5.30;;;;;;;;;;4950730;29;20054;-71
2021/10/09 20:37:02;;;;;;;7.25;5.30;;;;;;;;;;4951785;29;20093;-72
2021/10/09 20:39:47;;;;;;;6.35;5.03;;;;;;;;;;4950680;29;20188;-72
2021/10/09 20:42:32;;;;;;;7.50;5.25;;;;;;;;;;4932011;29;20519;-71
2021/10/09 20:45:17;;;;;;;6.07;5.22;;;;;;;;;;4962238;28;20126;-73
2021/10/09 20:48:02;;;;;;;7.97;5.57;;;;;;;;;;4952144;29;20605;-71
2021/10/09 20:50:47;;;;;;;6.05;5.28;;;;;;;;;;4951827;29;20050;-71
2021/10/09 20:53:31;;;;;;;7.25;5.55;;;;;;;;;;4953215;28;20117;-72
2021/10/09 20:56:17;;;;;;;6.82;5.82;;;;;;;;;;4951378;29;20075;-72
2021/10/09 20:59:02;;;;;;;6.40;5.32;;;;;;;;;;4950125;29;20134;-71
2021/10/09 21:01:47;;;;;;;8.40;5.95;;;;;;;;;;4951546;29;20460;-71
2021/10/09 21:04:31;;;;;;;7.53;5.28;;;;;;;;;;4951022;29;20105;-71
2021/10/09 21:07:28;;;;;;;5.43;4.82;;;;;;;;;;4947775;29;20446;-71
2021/10/09 21:10:17;;;;;;;7.45;5.70;;;;;;;;;;4964289;28;20050;-71
2021/10/09 21:13:14;;;;;;;8.68;5.13;;;;;;;;;;4962067;28;20418;-71
2021/10/09 21:22:20;;;;;;;7.35;5.53;;;;;;;;;;4949356;29;20467;-71
2021/10/09 21:25:05;;;;;;;7.55;5.47;;;;;;;;;;4948437;29;20538;-73
2021/10/09 21:27:53;;;;;;;7.95;5.68;;;;;;;;;;4961316;28;20050;-71
2021/10/09 21:30:39;;;;;;;7.43;5.72;;;;;;;;;;4941407;29;20130;-72
2021/10/09 21:33:24;;;;;;;7.68;5.85;;;;;;;;;;4948663;28;20117;-71
2021/10/09 21:36:09;;;;;;;6.72;4.78;;;;;;;;;;4946465;28;20513;-73
2021/10/09 21:38:53;;;;;;;6.82;5.57;;;;;;;;;;4950460;28;20042;-71
2021/10/09 21:41:38;;;;;;;6.63;5.13;;;;;;;;;;4953254;28;20054;-71
2021/10/09 21:44:23;;;;;;;10.20;5.78;;;;;;;;;;4976655;28;20082;-71
2021/10/09 21:47:08;;;;;;;6.47;5.07;;;;;;;;;;4936812;29;20066;-72
2021/10/09 21:49:53;;;;;;;7.30;5.55;;;;;;;;;;4947956;29;20093;-72
2021/10/09 21:52:38;;;;;;;8.02;5.40;;;;;;;;;;4949836;29;20168;-71
2021/10/09 21:55:23;;;;;;;7.57;5.72;;;;;;;;;;4946923;29;20046;-71
2021/10/09 21:58:11;;;;;;;7.93;5.35;;;;;;;;;;4949569;29;20738;-71
2021/10/09 22:07:32;;;;;;;6.20;4.95;;;;;;;;;;4950894;29;20071;-71
2021/10/09 22:16:44;;;;;;;7.68;5.50;;;;;;;;;;4943546;28;20042;-71
2021/10/09 22:34:21;;;;;;;7.50;5.32;;;;;;;;;;4933471;29;20058;-71
2021/10/09 22:37:06;;;;;;;7.45;5.50;;;;;;;;;;4949434;28;20042;-71
2021/10/09 22:39:50;;;;;;;6.13;4.85;;;;;;;;;;4952169;29;20046;-71
